Miller, South Dakota
Current Conditions -  °F | °C
As of 6:55 AM on Monday 20 Oct 2014 (Local Time) from KHON Reporting Station
Clear Clear  
Wind Chill: 34°   Ceiling: Unl
Heat Index: 34°   Visibility: 10mi
Dew Point: 31°   Wind: 0mph
Humidity: 89%   Direction: NA
Pressure: 30.07"   Gusts: NA
Location:  44.52°N, 98.99°W
Report Text: KHON 201155Z AUTO 00000KT 10SM CLR 01/M01 A3007 RMK AO2 SLP190 T00111006 10039 20000 51011
Loading
Personal Weather Stations






























Interactive Weather Map
Tropical Storm Tracking
New forecast layout! Learn more

10-Day Weather Forecast

Advertisements
Track Severe Weather on mobile